Corinthiakos — A8UL2 — position and weather

sailwx.info

Track history (hours):
 
Tides and Currents Weather Stations Pressure Air Temp Water Temp Dewpoint Dewpoint Depression Visibility Wind Speed Wind Dir Waves Ship Positions

Corinthiakos

Last reported at 2016-Nov-28 04:24 UTC. Time now 2016-Dec-07 08:35 UTC.
Position N 01°53' E 102°22'.
Warning: this ship's position is 9 days out of date.

Length 262 m; draft 11.8 m.

Type: Cargo ship. MMSI: 636014516.

Date/timePositionNaut miles runAvg speedWind from/ knotsBaromVisibWave heightAir tempDewpointWater temp
2016-Nov-28 04:24N 01°53' E 102°22'1821.0
2016-Nov-28 03:33N 01°46' E 102°39'7618.6
2016-Nov-27 23:26N 01°09' E 103°45'8 9.7
2016-Nov-27 22:33N 01°15' E 103°51'1 1.2
2016-Nov-27 21:32N 01°16' E 103°51'0 0.0
2016-Nov-27 20:29N 01°16' E 103°51'0 0.0
2016-Nov-27 19:32N 01°16' E 103°51'0 0.0
2016-Nov-27 18:29N 01°16' E 103°51'0 0.1
2016-Nov-27 17:29N 01°16' E 103°51'0 0.1
2016-Nov-27 16:29N 01°16' E 103°51'0 0.0
2016-Nov-27 15:32N 01°16' E 103°51'0 0.0
2016-Nov-27 14:32N 01°16' E 103°51'0 0.0
2016-Nov-27 13:29N 01°16' E 103°51'0 0.0
2016-Nov-27 12:32N 01°16' E 103°51'0 0.0
2016-Nov-27 11:29N 01°16' E 103°51'1 1.2
2016-Nov-27 10:33N 01°15' E 103°52'7 6.5
2016-Nov-27 09:33N 01°14' E 103°58'  
2016-Nov-24 01:20N 22°11' E 114°11'810.8
2016-Nov-24 00:33N 22°18' E 114°06'1110.8
2016-Nov-23 23:33N 22°21' E 113°55'6 5.8
2016-Nov-23 22:33N 22°27' E 113°54'0 0.3
2016-Nov-23 21:27N 22°27' E 113°54'0 0.0
2016-Nov-23 20:33N 22°27' E 113°54'0 0.0
2016-Nov-23 18:33N 22°27' E 113°54'0 0.0
2016-Nov-23 17:33N 22°27' E 113°54'0 0.0
2016-Nov-23 16:33N 22°27' E 113°54'0 0.0
2016-Nov-23 15:33N 22°27' E 113°54'0 0.0
2016-Nov-23 14:33N 22°27' E 113°54'0 0.0
2016-Nov-23 13:33N 22°27' E 113°54'0 0.0
2016-Nov-23 12:33N 22°27' E 113°54'0 0.0
2016-Nov-23 11:33N 22°27' E 113°54'0 0.0
2016-Nov-23 10:27N 22°27' E 113°54'3 3.4
2016-Nov-23 09:33N 22°24' E 113°54'9 8.6
2016-Nov-23 08:31N 22°21' E 114°03'3 0.5
2016-Nov-23 02:33N 22°19' E 114°05'346 9.6
2016-Nov-21 14:24N 22°35' E 120°18'0 0.0
2016-Nov-21 12:24N 22°35' E 120°18'0 0.0
2016-Nov-21 11:30N 22°35' E 120°18'0 0.0
2016-Nov-21 10:18N 22°35' E 120°18'0 0.0
2016-Nov-21 08:30N 22°35' E 120°18'0 0.0
2016-Nov-21 07:30N 22°35' E 120°18'0 0.0
2016-Nov-21 05:30N 22°35' E 120°18'0 0.0
2016-Nov-21 04:30N 22°35' E 120°18'0 0.0
2016-Nov-21 02:30N 22°35' E 120°18'0 0.0
2016-Nov-21 00:18N 22°35' E 120°18'1 0.2
2016-Nov-20 16:23N 22°33' E 120°19'16 8.6
2016-Nov-20 14:33N 22°28' E 120°03'18 3.6
2016-Nov-20 09:33N 22°25' E 119°44'4813.7
2016-Nov-20 06:04N 21°52' E 119°06'  
Track history (hours):
 
Tides and Currents Weather Stations Pressure Air Temp Water Temp Dewpoint Dewpoint Depression Visibility Wind Speed Wind Dir Waves Ship Positions

Corinthiakos

Last reported at 2016-Nov-28 04:24 UTC. Time now 2016-Dec-07 08:35 UTC.
Position N 01°53' E 102°22'.
Warning: this ship's position is 9 days out of date.

Length 262 m; draft 11.8 m.

Type: Cargo ship. MMSI: 636014516.

Date/timePositionNaut miles runAvg speedWind from/ knotsBaromVisibWave heightAir tempDewpointWater temp
2016-Nov-28 04:24N 01°53' E 102°22'1821.0
2016-Nov-28 03:33N 01°46' E 102°39'7618.6
2016-Nov-27 23:26N 01°09' E 103°45'8 9.7
2016-Nov-27 22:33N 01°15' E 103°51'1 1.2
2016-Nov-27 21:32N 01°16' E 103°51'0 0.0
2016-Nov-27 20:29N 01°16' E 103°51'0 0.0
2016-Nov-27 19:32N 01°16' E 103°51'0 0.0
2016-Nov-27 18:29N 01°16' E 103°51'0 0.1
2016-Nov-27 17:29N 01°16' E 103°51'0 0.1
2016-Nov-27 16:29N 01°16' E 103°51'0 0.0
2016-Nov-27 15:32N 01°16' E 103°51'0 0.0
2016-Nov-27 14:32N 01°16' E 103°51'0 0.0
2016-Nov-27 13:29N 01°16' E 103°51'0 0.0
2016-Nov-27 12:32N 01°16' E 103°51'0 0.0
2016-Nov-27 11:29N 01°16' E 103°51'1 1.2
2016-Nov-27 10:33N 01°15' E 103°52'7 6.5
2016-Nov-27 09:33N 01°14' E 103°58'  
2016-Nov-24 01:20N 22°11' E 114°11'810.8
2016-Nov-24 00:33N 22°18' E 114°06'1110.8
2016-Nov-23 23:33N 22°21' E 113°55'6 5.8
2016-Nov-23 22:33N 22°27' E 113°54'0 0.3
2016-Nov-23 21:27N 22°27' E 113°54'0 0.0
2016-Nov-23 20:33N 22°27' E 113°54'0 0.0
2016-Nov-23 18:33N 22°27' E 113°54'0 0.0
2016-Nov-23 17:33N 22°27' E 113°54'0 0.0
2016-Nov-23 16:33N 22°27' E 113°54'0 0.0
2016-Nov-23 15:33N 22°27' E 113°54'0 0.0
2016-Nov-23 14:33N 22°27' E 113°54'0 0.0
2016-Nov-23 13:33N 22°27' E 113°54'0 0.0
2016-Nov-23 12:33N 22°27' E 113°54'0 0.0
2016-Nov-23 11:33N 22°27' E 113°54'0 0.0
2016-Nov-23 10:27N 22°27' E 113°54'3 3.4
2016-Nov-23 09:33N 22°24' E 113°54'9 8.6
2016-Nov-23 08:31N 22°21' E 114°03'3 0.5
2016-Nov-23 02:33N 22°19' E 114°05'346 9.6
2016-Nov-21 14:24N 22°35' E 120°18'0 0.0
2016-Nov-21 12:24N 22°35' E 120°18'0 0.0
2016-Nov-21 11:30N 22°35' E 120°18'0 0.0
2016-Nov-21 10:18N 22°35' E 120°18'0 0.0
2016-Nov-21 08:30N 22°35' E 120°18'0 0.0
2016-Nov-21 07:30N 22°35' E 120°18'0 0.0
2016-Nov-21 05:30N 22°35' E 120°18'0 0.0
2016-Nov-21 04:30N 22°35' E 120°18'0 0.0
2016-Nov-21 02:30N 22°35' E 120°18'0 0.0
2016-Nov-21 00:18N 22°35' E 120°18'1 0.2
2016-Nov-20 16:23N 22°33' E 120°19'16 8.6
2016-Nov-20 14:33N 22°28' E 120°03'18 3.6
2016-Nov-20 09:33N 22°25' E 119°44'4813.7
2016-Nov-20 06:04N 21°52' E 119°06'  

Dump ship's entire track history